Time;durP1;ratioP1;P1;durP2;ratioP2;P2;SDS_P1;SDS_P2;PMS_P1;PMS_P2;Temp;Humidity;BMP_temperature;BMP_pressure;BME280_temperature;BME280_humidity;BME280_pressure;Samples;Min_cycle;Max_cycle;Signal;HPM_P1;HPM_P2
2021/10/21 00:01:13;;;;;;;6.22;1.15;;;10.30;96.80;;;;;;4934999;29;20066;-61
2021/10/21 00:03:40;;;;;;;2.47;0.75;;;10.30;96.80;;;;;;4937653;29;20047;-61
2021/10/21 00:06:07;;;;;;;4.32;1.02;;;10.20;96.80;;;;;;4946218;29;20462;-61
2021/10/21 00:08:34;;;;;;;3.17;0.82;;;10.20;97.00;;;;;;4945400;29;20051;-61
2021/10/21 00:11:01;;;;;;;4.55;1.40;;;10.20;96.90;;;;;;4949331;28;20062;-61
2021/10/21 00:13:28;;;;;;;2.33;0.63;;;10.10;96.40;;;;;;4934959;29;20056;-61
2021/10/21 00:15:55;;;;;;;2.40;0.65;;;10.00;96.50;;;;;;4959377;28;20427;-62
2021/10/21 00:18:21;;;;;;;5.40;1.27;;;10.00;97.00;;;;;;4945639;29;20062;-62
2021/10/21 00:20:48;;;;;;;3.75;0.88;;;10.00;97.00;;;;;;4938347;28;20039;-62
2021/10/21 00:23:15;;;;;;;3.33;0.63;;;10.00;96.80;;;;;;4934158;29;20089;-61
2021/10/21 00:25:43;;;;;;;1.65;0.82;;;10.00;97.30;;;;;;4940592;29;20079;-62
2021/10/21 00:28:12;;;;;;;4.18;0.77;;;9.90;96.80;;;;;;4948257;29;20081;-61
2021/10/21 00:30:39;;;;;;;4.03;0.93;;;9.90;96.30;;;;;;4948580;28;20451;-61
2021/10/21 00:33:06;;;;;;;12.98;2.10;;;9.80;96.40;;;;;;4943241;29;20084;-61
2021/10/21 00:35:33;;;;;;;5.80;1.00;;;9.60;96.20;;;;;;4940487;29;20102;-63
2021/10/21 00:38:00;;;;;;;9.65;1.17;;;9.50;95.90;;;;;;4935131;29;20051;-62
2021/10/21 00:40:27;;;;;;;6.55;1.30;;;9.40;96.30;;;;;;4941456;29;20055;-61
2021/10/21 00:42:53;;;;;;;12.25;1.90;;;9.30;96.60;;;;;;4934050;29;20067;-60
2021/10/21 00:45:20;;;;;;;6.43;1.60;;;9.30;96.10;;;;;;4937638;29;20054;-62
2021/10/21 00:47:47;;;;;;;7.20;1.20;;;9.20;96.30;;;;;;4942542;29;20050;-62
2021/10/21 00:50:14;;;;;;;6.55;1.63;;;9.20;96.70;;;;;;4937015;29;20051;-62
2021/10/21 00:52:41;;;;;;;12.45;1.60;;;9.20;96.50;;;;;;4945948;29;20135;-62
2021/10/21 00:55:08;;;;;;;5.70;1.52;;;9.20;96.80;;;;;;4936855;29;20062;-61
2021/10/21 00:57:36;;;;;;;7.45;1.40;;;9.20;96.20;;;;;;4960630;28;20046;-61
2021/10/21 01:00:04;;;;;;;7.00;1.25;;;9.10;96.50;;;;;;4945502;29;20570;-61
2021/10/21 01:02:31;;;;;;;6.30;1.13;;;9.20;96.30;;;;;;4935520;28;20047;-61
2021/10/21 01:04:59;;;;;;;12.98;1.63;;;9.10;96.40;;;;;;4949503;28;20051;-61
2021/10/21 01:07:25;;;;;;;15.25;1.55;;;9.00;96.00;;;;;;4957507;28;20115;-62
2021/10/21 01:09:52;;;;;;;5.57;1.40;;;9.00;96.70;;;;;;4960632;28;20102;-61
2021/10/21 01:12:19;;;;;;;11.25;1.38;;;9.10;96.30;;;;;;4954256;28;20391;-60
2021/10/21 01:14:46;;;;;;;5.78;1.50;;;9.00;96.30;;;;;;4934913;29;20047;-61
2021/10/21 01:17:17;;;;;;;11.80;1.75;;;9.00;96.50;;;;;;4955577;28;20072;-61
2021/10/21 01:19:44;;;;;;;9.75;1.73;;;9.00;96.40;;;;;;4933235;29;20663;-60
2021/10/21 01:22:10;;;;;;;11.23;1.55;;;9.00;96.90;;;;;;4936802;29;20597;-60
2021/10/21 01:24:37;;;;;;;5.45;1.40;;;9.00;96.80;;;;;;4940611;29;20056;-60
2021/10/21 01:27:04;;;;;;;8.85;2.65;;;9.00;96.70;;;;;;4953337;28;20047;-60
2021/10/21 01:29:31;;;;;;;6.53;1.15;;;9.00;96.40;;;;;;4939175;28;20051;-60
2021/10/21 01:31:58;;;;;;;8.05;1.88;;;9.00;96.20;;;;;;4955848;28;20087;-61
2021/10/21 01:34:25;;;;;;;8.18;1.60;;;9.00;96.60;;;;;;4948788;28;20422;-61
2021/10/21 01:36:54;;;;;;;11.45;1.50;;;9.00;96.80;;;;;;4940442;29;20483;-61
2021/10/21 01:39:25;;;;;;;9.30;1.88;;;9.00;96.50;;;;;;4962552;28;20138;-61
2021/10/21 01:41:52;;;;;;;10.95;2.53;;;9.00;96.50;;;;;;4961003;28;20506;-61
2021/10/21 01:44:19;;;;;;;10.88;1.38;;;9.00;96.30;;;;;;4939007;29;20091;-60
2021/10/21 01:46:46;;;;;;;5.95;1.27;;;9.00;96.20;;;;;;4950657;29;20043;-61
2021/10/21 01:49:13;;;;;;;6.10;1.25;;;9.00;96.30;;;;;;4940000;29;20134;-60
2021/10/21 01:51:40;;;;;;;13.63;2.15;;;9.00;96.40;;;;;;4943350;29;20098;-61
2021/10/21 01:54:06;;;;;;;6.38;1.80;;;9.00;96.30;;;;;;4939049;29;20048;-61
2021/10/21 01:56:33;;;;;;;12.88;1.92;;;9.10;96.50;;;;;;4937475;29;20079;-61
2021/10/21 01:59:00;;;;;;;5.65;1.45;;;9.10;96.70;;;;;;4944194;29;20118;-60
2021/10/21 02:01:27;;;;;;;10.35;1.58;;;9.10;96.40;;;;;;4947366;29;20341;-60
2021/10/21 02:03:54;;;;;;;9.80;2.38;;;9.20;96.40;;;;;;4942106;28;20054;-61
2021/10/21 02:06:21;;;;;;;6.93;1.55;;;9.20;96.20;;;;;;4938215;28;20051;-60
2021/10/21 02:08:47;;;;;;;15.00;2.03;;;9.20;96.40;;;;;;4957651;28;20055;-61
2021/10/21 02:11:14;;;;;;;9.88;2.13;;;9.20;96.20;;;;;;4945095;29;20047;-60
2021/10/21 02:13:41;;;;;;;7.30;2.28;;;9.20;96.20;;;;;;4931148;29;20124;-62
2021/10/21 02:16:08;;;;;;;6.22;1.42;;;9.10;96.10;;;;;;4945923;29;20075;-60
2021/10/21 02:18:35;;;;;;;6.50;2.17;;;9.10;96.20;;;;;;4942565;29;20071;-60
2021/10/21 02:21:02;;;;;;;12.23;1.88;;;9.10;95.90;;;;;;4936800;29;20519;-61
2021/10/21 02:23:29;;;;;;;8.80;1.48;;;9.10;96.20;;;;;;4944568;29;20059;-60
2021/10/21 02:25:56;;;;;;;9.30;1.52;;;9.10;96.30;;;;;;4936980;29;20079;-60
2021/10/21 02:28:22;;;;;;;8.35;1.40;;;9.10;96.20;;;;;;4938608;29;20052;-61
2021/10/21 02:30:49;;;;;;;14.38;1.58;;;9.10;96.40;;;;;;4947932;28;20050;-60
2021/10/21 02:33:16;;;;;;;7.68;1.75;;;9.00;96.30;;;;;;4947991;29;20114;-64
2021/10/21 02:35:43;;;;;;;6.63;2.00;;;9.00;96.20;;;;;;4935341;29;20455;-59
2021/10/21 02:38:11;;;;;;;9.35;1.52;;;9.00;96.30;;;;;;4936335;29;20078;-59
2021/10/21 02:40:39;;;;;;;13.60;2.50;;;9.00;96.30;;;;;;4944465;29;20078;-61
2021/10/21 02:43:05;;;;;;;13.35;2.15;;;9.00;96.10;;;;;;4947819;28;20055;-61
2021/10/21 02:45:32;;;;;;;15.93;2.30;;;9.00;96.20;;;;;;4946316;29;20078;-62
2021/10/21 02:47:59;;;;;;;15.20;2.05;;;9.00;96.20;;;;;;4958615;28;20043;-61
2021/10/21 02:50:26;;;;;;;8.90;1.20;;;8.90;96.10;;;;;;4940073;29;20825;-61
2021/10/21 02:52:53;;;;;;;16.48;3.22;;;9.00;96.40;;;;;;4937423;29;20046;-61
2021/10/21 02:55:22;;;;;;;12.10;2.53;;;9.00;96.30;;;;;;4942589;29;20094;-66
2021/10/21 02:57:49;;;;;;;11.63;2.75;;;8.90;96.20;;;;;;4943974;29;20044;-61
2021/10/21 03:00:16;;;;;;;8.60;1.65;;;8.90;96.30;;;;;;4941283;29;20405;-61
2021/10/21 03:02:42;;;;;;;6.75;2.50;;;8.90;96.60;;;;;;4945775;29;20518;-62
2021/10/21 03:05:09;;;;;;;7.85;1.52;;;8.90;96.40;;;;;;4942897;29;20114;-62
2021/10/21 03:07:36;;;;;;;11.73;5.05;;;8.90;96.30;;;;;;4936434;29;20110;-61
2021/10/21 03:10:03;;;;;;;17.52;2.53;;;8.90;96.30;;;;;;4943997;29;20078;-60
2021/10/21 03:12:30;;;;;;;8.32;1.77;;;8.90;96.20;;;;;;4947336;28;20063;-61
2021/10/21 03:15:18;;;;;;;18.40;1.98;;;8.90;96.20;;;;;;4940249;29;20559;-60
2021/10/21 03:17:45;;;;;;;3.65;1.00;;;8.90;96.00;;;;;;4947376;28;20055;-61
2021/10/21 03:20:12;;;;;;;7.90;1.40;;;8.90;95.90;;;;;;4939271;29;20055;-61
2021/10/21 03:22:40;;;;;;;7.03;1.58;;;8.90;95.80;;;;;;4946195;29;20091;-61
2021/10/21 03:25:07;;;;;;;13.70;2.45;;;8.90;95.90;;;;;;4946329;29;20057;-60
2021/10/21 03:27:36;;;;;;;4.95;1.60;;;8.90;95.60;;;;;;4950322;28;20075;-60
2021/10/21 03:30:04;;;;;;;10.45;1.67;;;8.90;95.50;;;;;;4929917;29;20087;-62
2021/10/21 03:32:31;;;;;;;13.82;1.90;;;8.90;95.60;;;;;;4945929;29;20044;-61
2021/10/21 03:34:57;;;;;;;6.18;1.35;;;8.90;95.60;;;;;;4946410;29;20091;-60
2021/10/21 03:37:25;;;;;;;5.25;1.60;;;8.80;95.50;;;;;;4938228;29;20052;-60
2021/10/21 03:39:51;;;;;;;12.07;2.78;;;8.80;95.50;;;;;;4946517;29;20043;-62
2021/10/21 03:42:20;;;;;;;4.03;1.10;;;8.80;95.70;;;;;;4940584;29;20142;-61
2021/10/21 03:44:47;;;;;;;9.02;1.50;;;8.80;95.60;;;;;;4945377;28;20051;-60
2021/10/21 03:47:14;;;;;;;5.15;1.02;;;8.80;95.40;;;;;;4934643;29;20467;-61
2021/10/21 03:49:41;;;;;;;6.43;1.08;;;8.80;95.30;;;;;;4952345;28;20407;-62
2021/10/21 03:52:08;;;;;;;4.30;1.35;;;8.80;95.30;;;;;;4940711;29;20058;-60
2021/10/21 03:54:35;;;;;;;7.63;1.23;;;8.80;95.00;;;;;;4958706;28;20479;-61
2021/10/21 03:57:02;;;;;;;14.02;2.40;;;8.70;95.00;;;;;;4942074;29;20062;-61
2021/10/21 03:59:28;;;;;;;17.10;1.73;;;8.70;95.10;;;;;;4936404;28;20060;-61
2021/10/21 04:01:57;;;;;;;10.00;1.88;;;8.70;94.90;;;;;;4937005;29;20389;-61
2021/10/21 04:04:24;;;;;;;4.00;0.90;;;8.70;94.80;;;;;;4925348;29;20062;-62
2021/10/21 04:06:53;;;;;;;7.65;1.45;;;8.70;95.10;;;;;;4943321;29;20043;-61
2021/10/21 04:09:19;;;;;;;7.25;1.98;;;8.70;95.10;;;;;;4934749;29;20174;-62
2021/10/21 04:11:46;;;;;;;6.78;2.58;;;8.60;95.00;;;;;;4935358;29;20455;-63
2021/10/21 04:14:13;;;;;;;10.80;1.92;;;8.60;94.90;;;;;;4946470;28;20062;-61
2021/10/21 04:16:40;;;;;;;5.38;1.58;;;8.60;95.10;;;;;;4953857;28;20055;-61
2021/10/21 04:19:07;;;;;;;10.93;1.40;;;8.60;95.10;;;;;;4960681;28;20121;-60
2021/10/21 04:21:33;;;;;;;7.65;1.00;;;8.60;95.10;;;;;;4946047;29;20312;-62
2021/10/21 04:24:00;;;;;;;8.60;1.15;;;8.60;95.00;;;;;;4937426;29;20067;-62
2021/10/21 04:26:27;;;;;;;14.75;1.67;;;8.60;95.10;;;;;;4949810;28;20495;-61
2021/10/21 04:28:54;;;;;;;6.53;1.13;;;8.60;95.00;;;;;;4956447;28;20075;-60
2021/10/21 04:31:21;;;;;;;9.52;1.95;;;8.50;94.90;;;;;;4945881;29;20074;-61
2021/10/21 04:33:48;;;;;;;5.93;1.58;;;8.60;95.00;;;;;;4941086;29;20047;-62
2021/10/21 04:36:15;;;;;;;7.70;1.08;;;8.50;95.00;;;;;;4946024;29;20122;-62
2021/10/21 04:38:42;;;;;;;7.22;1.08;;;8.50;94.90;;;;;;4939397;29;20105;-61
2021/10/21 04:41:09;;;;;;;6.47;1.38;;;8.60;95.10;;;;;;4945381;29;20138;-62
2021/10/21 04:43:36;;;;;;;7.65;1.13;;;8.50;94.90;;;;;;4939700;29;20114;-63
2021/10/21 04:46:03;;;;;;;10.30;1.40;;;8.50;94.80;;;;;;4938192;28;20448;-61
2021/10/21 04:48:30;;;;;;;6.50;1.13;;;8.50;94.80;;;;;;4941787;29;20054;-61
2021/10/21 04:50:57;;;;;;;3.90;0.98;;;8.50;94.70;;;;;;4934977;29;20107;-61
2021/10/21 04:53:24;;;;;;;4.90;1.27;;;8.60;94.70;;;;;;4938303;29;20101;-62
2021/10/21 04:55:51;;;;;;;5.82;1.15;;;8.60;94.70;;;;;;4946245;29;20083;-61
2021/10/21 04:58:17;;;;;;;14.98;1.88;;;8.60;94.10;;;;;;4938162;29;20087;-61
2021/10/21 05:00:44;;;;;;;6.30;1.25;;;8.60;94.30;;;;;;4946125;28;20039;-60
2021/10/21 05:03:12;;;;;;;18.13;3.55;;;8.60;94.40;;;;;;4939086;29;20147;-61
2021/10/21 05:05:42;;;;;;;11.55;1.48;;;8.60;93.90;;;;;;4945592;29;20047;-61
2021/10/21 05:08:09;;;;;;;9.43;1.63;;;8.70;94.50;;;;;;4942873;29;20121;-61
2021/10/21 05:10:36;;;;;;;6.32;2.17;;;8.70;94.60;;;;;;4945269;28;20474;-62
2021/10/21 05:13:03;;;;;;;6.22;1.33;;;8.70;94.10;;;;;;4946415;29;20732;-60
2021/10/21 05:15:29;;;;;;;3.78;0.70;;;8.70;94.00;;;;;;4944939;29;20095;-60
2021/10/21 05:17:56;;;;;;;7.20;1.27;;;8.80;94.00;;;;;;4948559;28;20055;-62
2021/10/21 05:20:23;;;;;;;7.50;1.15;;;8.80;94.00;;;;;;4944848;29;20350;-61
2021/10/21 05:22:50;;;;;;;14.05;1.15;;;8.80;94.00;;;;;;4948894;29;20047;-61
2021/10/21 05:25:17;;;;;;;4.55;1.00;;;8.80;94.00;;;;;;4944410;29;20094;-61
2021/10/21 05:27:44;;;;;;;2.92;1.08;;;8.80;93.70;;;;;;4948448;29;20047;-61
2021/10/21 05:30:11;;;;;;;5.35;1.08;;;8.90;93.50;;;;;;4942920;29;20586;-62
2021/10/21 05:32:38;;;;;;;6.45;1.33;;;8.90;93.50;;;;;;4962108;28;20043;-62
2021/10/21 05:35:05;;;;;;;8.15;1.52;;;8.90;93.70;;;;;;4942859;29;20590;-60
2021/10/21 05:37:32;;;;;;;4.25;1.33;;;8.80;93.20;;;;;;4954992;28;20075;-61
2021/10/21 05:39:59;;;;;;;3.15;1.10;;;9.00;93.60;;;;;;4940771;29;20055;-62
2021/10/21 05:42:26;;;;;;;9.88;1.40;;;9.10;93.30;;;;;;4947952;29;20495;-61
2021/10/21 05:44:53;;;;;;;9.32;1.40;;;9.00;93.60;;;;;;4943630;28;20523;-62
2021/10/21 05:47:19;;;;;;;5.68;1.10;;;9.00;93.60;;;;;;4939058;29;20766;-61
2021/10/21 05:49:46;;;;;;;8.38;1.25;;;9.00;92.90;;;;;;4943906;29;20067;-62
2021/10/21 05:52:13;;;;;;;4.63;1.08;;;9.00;93.40;;;;;;4937047;29;20044;-61
2021/10/21 05:54:40;;;;;;;6.03;1.17;;;9.10;92.80;;;;;;4941841;29;20043;-62
2021/10/21 05:57:07;;;;;;;10.48;1.27;;;9.10;93.20;;;;;;4940176;29;20078;-61
2021/10/21 05:59:34;;;;;;;7.80;1.13;;;9.10;93.20;;;;;;4940723;29;20051;-60
2021/10/21 06:02:00;;;;;;;8.38;1.15;;;9.20;92.60;;;;;;4942227;28;20051;-62
2021/10/21 06:04:28;;;;;;;7.07;1.50;;;9.20;93.10;;;;;;4936525;29;20498;-61
2021/10/21 06:06:54;;;;;;;8.50;1.48;;;9.20;93.20;;;;;;4935733;29;20078;-61
2021/10/21 06:09:21;;;;;;;7.32;1.45;;;9.20;92.30;;;;;;4936348;29;20059;-62
2021/10/21 06:11:50;;;;;;;3.67;0.98;;;9.30;93.10;;;;;;4942428;29;20074;-61
2021/10/21 06:14:17;;;;;;;23.63;2.65;;;9.30;92.70;;;;;;4937351;29;20051;-63
2021/10/21 06:16:47;;;;;;;5.28;1.02;;;9.30;92.60;;;;;;4933913;29;20086;-62
2021/10/21 06:19:15;;;;;;;5.20;1.20;;;9.40;92.70;;;;;;4938452;29;20067;-61
2021/10/21 06:21:46;;;;;;;7.15;1.20;;;9.30;92.80;;;;;;4957473;28;20044;-62
2021/10/21 06:24:14;;;;;;;11.85;1.60;;;9.30;92.50;;;;;;4937290;29;20060;-62
2021/10/21 06:26:41;;;;;;;5.93;1.55;;;9.30;92.60;;;;;;4939280;29;20048;-62
2021/10/21 06:29:07;;;;;;;3.05;1.05;;;9.30;92.90;;;;;;4936837;29;20138;-61
2021/10/21 06:31:34;;;;;;;8.65;0.95;;;9.30;92.80;;;;;;4940528;29;20086;-62
2021/10/21 06:34:01;;;;;;;7.22;1.30;;;9.30;92.70;;;;;;4946954;29;20055;-62
2021/10/21 06:36:29;;;;;;;6.55;1.35;;;9.30;92.80;;;;;;4946049;28;20058;-61
2021/10/21 06:38:56;;;;;;;5.53;2.03;;;9.20;92.80;;;;;;4938320;29;20083;-62
2021/10/21 06:41:23;;;;;;;4.55;1.00;;;9.20;92.90;;;;;;4936714;29;20056;-61
2021/10/21 06:43:50;;;;;;;3.15;1.00;;;9.20;92.90;;;;;;4946599;29;20042;-62
2021/10/21 06:46:16;;;;;;;12.13;2.30;;;9.30;93.00;;;;;;4943947;29;20650;-60
2021/10/21 06:48:43;;;;;;;3.63;1.33;;;9.20;92.80;;;;;;4947778;29;20075;-60
2021/10/21 06:51:10;;;;;;;9.93;1.92;;;9.30;92.30;;;;;;4947731;29;20086;-63
2021/10/21 06:53:37;;;;;;;3.53;0.93;;;9.30;92.80;;;;;;4941391;29;20047;-62
2021/10/21 06:56:04;;;;;;;5.75;1.15;;;9.30;92.90;;;;;;4936987;28;20058;-62
2021/10/21 06:58:33;;;;;;;6.18;1.00;;;9.40;92.40;;;;;;4942507;29;20055;-61
2021/10/21 07:00:59;;;;;;;5.32;1.35;;;9.40;92.70;;;;;;4949455;29;20063;-62
2021/10/21 07:03:27;;;;;;;4.07;1.42;;;9.40;92.50;;;;;;4951440;29;20047;-62
2021/10/21 07:05:54;;;;;;;9.70;2.10;;;9.40;92.70;;;;;;4936002;29;20503;-60
2021/10/21 07:08:23;;;;;;;8.30;2.38;;;9.50;92.70;;;;;;4935771;29;20492;-61
2021/10/21 07:10:50;;;;;;;3.45;1.20;;;9.40;92.40;;;;;;4930989;29;20078;-60
2021/10/21 07:13:17;;;;;;;12.25;2.90;;;9.40;92.40;;;;;;4928897;29;20102;-61
2021/10/21 07:16:04;;;;;;;8.95;1.17;;;9.50;92.80;;;;;;4938558;29;20051;-60
2021/10/21 07:18:32;;;;;;;3.97;0.90;;;9.60;92.00;;;;;;4940048;29;20499;-61
2021/10/21 07:20:59;;;;;;;7.63;1.20;;;9.60;92.20;;;;;;4933167;29;20083;-62
2021/10/21 07:23:26;;;;;;;12.85;1.42;;;9.60;91.50;;;;;;4940575;29;20083;-61
2021/10/21 07:25:53;;;;;;;5.65;1.05;;;9.60;91.20;;;;;;4933274;29;20047;-61
2021/10/21 07:28:22;;;;;;;7.88;1.10;;;9.60;91.00;;;;;;4934129;29;20051;-61
2021/10/21 07:30:59;;;;;;;9.35;1.85;;;9.60;88.80;;;;;;4937903;29;20055;-61
2021/10/21 07:33:26;;;;;;;10.00;1.40;;;9.70;90.00;;;;;;4944780;28;20054;-61
2021/10/21 07:35:55;;;;;;;9.02;0.82;;;9.70;85.10;;;;;;4935466;29;20523;-60
2021/10/21 07:38:21;;;;;;;7.10;0.93;;;9.60;82.10;;;;;;4939770;29;20233;-60
2021/10/21 07:40:48;;;;;;;4.72;1.15;;;9.50;82.70;;;;;;4933567;28;20492;-61
2021/10/21 07:43:15;;;;;;;6.28;1.27;;;9.40;80.10;;;;;;4932638;29;20178;-61
2021/10/21 07:45:42;;;;;;;5.88;0.90;;;9.30;82.70;;;;;;4937018;29;20946;-61
2021/10/21 07:48:09;;;;;;;8.52;1.30;;;9.20;81.10;;;;;;4941450;29;20047;-60
2021/10/21 07:50:36;;;;;;;2.22;0.85;;;9.10;78.60;;;;;;4938863;29;20051;-60
2021/10/21 07:53:05;;;;;;;1.58;0.70;;;9.10;81.30;;;;;;4922456;29;20048;-61
2021/10/21 07:55:36;;;;;;;2.50;0.80;;;9.10;82.80;;;;;;4938665;29;20135;-60
2021/10/21 07:58:03;;;;;;;7.03;2.58;;;9.20;84.60;;;;;;4941830;29;20091;-60
2021/10/21 08:00:30;;;;;;;3.22;0.90;;;9.10;81.50;;;;;;4937091;29;20044;-62
2021/10/21 08:02:57;;;;;;;4.68;1.25;;;8.90;77.20;;;;;;4935457;29;20051;-60
2021/10/21 08:05:24;;;;;;;3.05;1.40;;;8.90;79.20;;;;;;4949973;28;20134;-60
2021/10/21 08:07:51;;;;;;;8.13;1.45;;;8.80;81.80;;;;;;4941227;29;20111;-60
2021/10/21 08:10:21;;;;;;;8.95;1.20;;;8.80;79.60;;;;;;4928571;29;20059;-61
2021/10/21 08:12:50;;;;;;;8.52;0.82;;;8.70;79.70;;;;;;4933320;29;20070;-61
2021/10/21 08:15:17;;;;;;;16.73;1.70;;;8.70;78.90;;;;;;4949372;28;20478;-60
2021/10/21 08:17:44;;;;;;;1.20;0.90;;;8.70;80.20;;;;;;4941874;29;20074;-61
2021/10/21 08:20:12;;;;;;;2.35;0.65;;;8.60;80.70;;;;;;4954107;28;20823;-60
2021/10/21 08:22:47;;;;;;;4.88;0.70;;;8.60;80.00;;;;;;4930816;29;20098;-60
2021/10/21 08:25:16;;;;;;;5.72;1.13;;;8.60;80.40;;;;;;4933785;29;20102;-61
2021/10/21 08:27:43;;;;;;;0.60;0.40;;;8.70;79.40;;;;;;4942845;29;20138;-61
2021/10/21 08:30:10;;;;;;;1.50;0.73;;;8.60;79.70;;;;;;4943100;29;20166;-61
2021/10/21 08:32:36;;;;;;;7.70;0.98;;;8.60;80.50;;;;;;4943192;28;20101;-61
2021/10/21 08:35:07;;;;;;;6.13;1.15;;;8.60;78.60;;;;;;4935125;29;20484;-63
2021/10/21 08:37:35;;;;;;;0.82;0.47;;;8.60;83.80;;;;;;4941349;29;20502;-60
2021/10/21 08:40:03;;;;;;;5.40;0.90;;;8.50;81.30;;;;;;4939203;29;20080;-60
2021/10/21 08:42:30;;;;;;;3.15;1.48;;;8.50;80.60;;;;;;4939260;29;20511;-61
2021/10/21 08:44:57;;;;;;;4.32;1.27;;;8.50;82.50;;;;;;4955315;28;20060;-60
2021/10/21 08:47:27;;;;;;;0.50;0.50;;;8.50;82.50;;;;;;4936289;29;20083;-60
2021/10/21 08:49:55;;;;;;;3.72;0.90;;;8.30;82.70;;;;;;4934507;29;20079;-60
2021/10/21 08:52:22;;;;;;;5.20;0.75;;;8.40;83.40;;;;;;4956313;28;20070;-60
2021/10/21 08:54:48;;;;;;;0.75;0.40;;;8.40;85.10;;;;;;4959182;28;20044;-61
2021/10/21 08:57:15;;;;;;;0.98;0.30;;;8.30;84.20;;;;;;4940681;29;20097;-61
2021/10/21 08:59:44;;;;;;;6.15;1.30;;;8.20;85.50;;;;;;4936933;29;20456;-60
2021/10/21 09:02:24;;;;;;;4.57;0.73;;;8.30;86.30;;;;;;4953563;28;20138;-61
2021/10/21 09:05:01;;;;;;;14.85;2.47;;;8.30;86.50;;;;;;4944437;29;20054;-61
2021/10/21 09:10:15;;;;;;;2.15;0.77;;;8.30;85.40;;;;;;4602326;28;10000214;-61
2021/10/21 09:12:45;;;;;;;5.72;1.77;;;8.40;86.80;;;;;;4939924;29;20142;-60
2021/10/21 09:15:24;;;;;;;4.10;1.00;;;8.40;87.10;;;;;;4950142;28;20139;-60
2021/10/21 09:17:51;;;;;;;2.83;0.40;;;8.40;85.40;;;;;;4929040;29;20499;-60
2021/10/21 09:20:26;;;;;;;1.23;0.43;;;8.30;85.30;;;;;;4943949;28;20079;-60
2021/10/21 09:22:58;;;;;;;1.77;0.43;;;8.20;84.70;;;;;;4939454;29;20075;-61
2021/10/21 09:25:29;;;;;;;0.40;0.40;;;8.20;85.40;;;;;;4934150;29;20090;-60
2021/10/21 09:28:01;;;;;;;0.93;0.47;;;8.20;85.60;;;;;;4939089;29;20099;-60
2021/10/21 09:30:30;;;;;;;0.38;0.38;;;8.00;85.30;;;;;;4943510;29;20093;-60
2021/10/21 09:33:07;;;;;;;0.40;0.40;;;8.00;85.80;;;;;;4940277;29;20079;-60
2021/10/21 09:35:37;;;;;;;3.38;0.70;;;8.00;85.50;;;;;;4942020;29;20098;-60
2021/10/21 09:38:05;;;;;;;1.73;0.35;;;8.10;85.80;;;;;;4947974;28;20079;-60
2021/10/21 09:40:37;;;;;;;0.80;0.50;;;8.20;86.80;;;;;;4944599;29;20360;-59
2021/10/21 09:43:05;;;;;;;7.15;1.42;;;8.30;85.20;;;;;;4935626;29;20724;-61
2021/10/21 09:45:36;;;;;;;1.70;0.70;;;8.30;84.70;;;;;;4946982;29;20507;-61
2021/10/21 09:48:04;;;;;;;3.80;0.98;;;8.40;84.30;;;;;;4950022;28;20099;-60
2021/10/21 09:50:36;;;;;;;2.00;0.77;;;8.40;83.90;;;;;;4938026;29;20055;-60
2021/10/21 09:53:19;;;;;;;3.17;0.77;;;8.40;85.20;;;;;;4931875;29;20051;-60
2021/10/21 09:56:08;;;;;;;2.05;0.60;;;8.50;85.20;;;;;;4925797;29;20616;-61
2021/10/21 09:58:41;;;;;;;3.58;0.80;;;8.60;81.70;;;;;;4936323;28;20126;-61
2021/10/21 10:01:09;;;;;;;4.90;0.75;;;8.60;82.50;;;;;;4928602;29;20433;-60
2021/10/21 10:03:39;;;;;;;6.47;0.80;;;8.60;84.60;;;;;;4935940;29;20079;-60
2021/10/21 10:06:06;;;;;;;2.25;0.60;;;8.60;83.40;;;;;;4607099;28;10000345;-60
2021/10/21 10:08:33;;;;;;;1.73;0.60;;;8.70;83.60;;;;;;4944134;29;20105;-60
2021/10/21 10:11:02;;;;;;;1.80;0.57;;;8.70;84.30;;;;;;4936929;29;20144;-60
2021/10/21 10:13:29;;;;;;;1.98;0.70;;;8.80;80.80;;;;;;4945808;29;20407;-64
2021/10/21 10:15:56;;;;;;;0.85;0.30;;;8.80;80.10;;;;;;4935732;29;20055;-61
2021/10/21 10:18:24;;;;;;;0.75;0.50;;;8.90;80.50;;;;;;4936213;29;20099;-61
2021/10/21 10:21:00;;;;;;;1.45;1.13;;;8.90;81.70;;;;;;4956154;28;20049;-60
2021/10/21 10:23:27;;;;;;;5.28;0.93;;;9.00;79.90;;;;;;4933044;29;20052;-61
2021/10/21 10:25:54;;;;;;;1.38;0.75;;;9.00;81.30;;;;;;4940608;29;20071;-61
2021/10/21 10:28:21;;;;;;;5.35;0.80;;;9.10;82.10;;;;;;4944072;29;20047;-62
2021/10/21 10:30:50;;;;;;;3.92;0.70;;;9.20;83.10;;;;;;4936997;29;20079;-61
2021/10/21 10:33:32;;;;;;;3.60;0.98;;;9.20;81.50;;;;;;4934635;29;20514;-59
2021/10/21 10:36:26;;;;;;;1.35;0.70;;;9.20;78.00;;;;;;4940729;29;20168;-59
2021/10/21 10:38:54;;;;;;;2.30;0.70;;;9.10;75.80;;;;;;4931553;29;20043;-59
2021/10/21 10:41:44;;;;;;;9.30;1.02;;;9.10;77.20;;;;;;4940286;29;20502;-59
2021/10/21 10:44:12;;;;;;;2.00;0.70;;;9.20;76.90;;;;;;4939483;29;20051;-59
2021/10/21 10:46:52;;;;;;;2.58;0.90;;;9.30;76.70;;;;;;4942994;29;20138;-60
2021/10/21 10:49:39;;;;;;;13.10;3.42;;;9.30;74.90;;;;;;4933958;29;20059;-59
2021/10/21 10:52:13;;;;;;;3.33;1.00;;;9.30;75.20;;;;;;4945816;29;20052;-60
2021/10/21 10:54:52;;;;;;;2.05;0.82;;;9.40;77.30;;;;;;4941153;29;20055;-60
2021/10/21 10:57:25;;;;;;;7.68;0.95;;;9.50;74.20;;;;;;4945243;29;20105;-61
2021/10/21 10:59:52;;;;;;;5.80;1.00;;;9.70;77.10;;;;;;4941147;29;20102;-60
2021/10/21 11:02:25;;;;;;;8.50;0.93;;;9.80;77.70;;;;;;4943971;29;20542;-60
2021/10/21 11:04:52;;;;;;;6.05;1.15;;;9.80;78.00;;;;;;4940961;28;20051;-60
2021/10/21 11:07:20;;;;;;;3.83;1.52;;;9.80;77.10;;;;;;4937716;29;20114;-60
2021/10/21 11:09:48;;;;;;;2.10;0.70;;;9.80;74.10;;;;;;4958632;28;20642;-60
2021/10/21 11:12:19;;;;;;;5.18;0.70;;;9.80;79.00;;;;;;4949210;28;20039;-60
2021/10/21 11:14:47;;;;;;;1.80;0.47;;;9.70;75.60;;;;;;4925498;29;20047;-60
2021/10/21 11:17:34;;;;;;;3.95;0.70;;;9.80;72.30;;;;;;4940166;28;20051;-60
2021/10/21 11:20:01;;;;;;;4.03;0.70;;;9.90;75.70;;;;;;4944819;28;20092;-59
2021/10/21 11:22:28;;;;;;;3.10;0.60;;;9.90;75.90;;;;;;4939919;29;20048;-59
2021/10/21 11:25:00;;;;;;;2.08;0.85;;;9.90;77.20;;;;;;4934884;29;20064;-60
2021/10/21 11:27:38;;;;;;;2.95;0.80;;;9.90;75.50;;;;;;4939915;28;20090;-60
2021/10/21 11:30:12;;;;;;;1.50;0.65;;;10.00;76.50;;;;;;4935812;29;20091;-62
2021/10/21 11:32:58;;;;;;;5.85;1.77;;;10.10;75.70;;;;;;4937369;29;20043;-60
2021/10/21 11:35:27;;;;;;;3.35;1.05;;;10.20;76.10;;;;;;4945542;29;20098;-60
2021/10/21 11:37:55;;;;;;;2.08;0.98;;;10.30;71.20;;;;;;4939633;29;20082;-61
2021/10/21 11:40:23;;;;;;;1.55;0.85;;;10.20;75.20;;;;;;4952036;28;20062;-60
2021/10/21 11:43:00;;;;;;;5.40;0.80;;;10.10;75.90;;;;;;4932744;29;20044;-60
2021/10/21 11:45:30;;;;;;;7.38;1.20;;;10.10;72.60;;;;;;4952754;28;20046;-60
2021/10/21 11:47:58;;;;;;;3.63;0.77;;;10.10;76.60;;;;;;4945669;28;20106;-60
2021/10/21 11:50:31;;;;;;;1.45;0.40;;;10.20;75.40;;;;;;4936353;29;20095;-60
2021/10/21 11:52:59;;;;;;;1.50;0.83;;;10.20;72.00;;;;;;4955724;28;20048;-61
2021/10/21 11:55:27;;;;;;;2.47;1.00;;;10.20;75.10;;;;;;4935349;29;20286;-60
2021/10/21 11:57:54;;;;;;;7.43;1.00;;;10.20;73.40;;;;;;4944064;29;20126;-60
2021/10/21 12:00:27;;;;;;;7.43;0.82;;;10.30;74.80;;;;;;4943747;29;20051;-60
2021/10/21 12:02:55;;;;;;;4.85;0.82;;;10.40;71.80;;;;;;4952547;28;20058;-60
2021/10/21 12:05:39;;;;;;;1.48;0.80;;;10.50;72.70;;;;;;4638869;29;10001404;-60
2021/10/21 12:08:07;;;;;;;8.40;1.35;;;10.50;71.80;;;;;;4935856;29;20311;-61
2021/10/21 12:10:35;;;;;;;4.43;1.38;;;10.60;72.80;;;;;;4949112;28;20486;-60
2021/10/21 12:13:04;;;;;;;3.90;0.85;;;10.70;74.40;;;;;;4942755;29;20062;-60
2021/10/21 12:15:32;;;;;;;5.35;0.80;;;10.80;73.50;;;;;;4948478;28;20086;-61
2021/10/21 12:18:07;;;;;;;3.72;1.35;;;10.80;74.60;;;;;;4957344;28;20062;-61
2021/10/21 12:20:52;;;;;;;3.63;0.80;;;10.80;73.40;;;;;;4934525;29;20103;-60
2021/10/21 12:23:30;;;;;;;7.15;1.40;;;10.90;73.20;;;;;;4952847;28;20574;-60
2021/10/21 12:26:05;;;;;;;2.58;1.10;;;11.00;72.40;;;;;;4945538;29;20130;-60
2021/10/21 12:28:52;;;;;;;3.15;1.02;;;10.90;72.70;;;;;;4942404;29;20416;-60
2021/10/21 12:31:29;;;;;;;5.43;0.70;;;10.80;69.70;;;;;;4934202;29;20538;-60
2021/10/21 12:34:22;;;;;;;10.20;2.00;;;10.70;69.20;;;;;;4938334;29;20059;-59
2021/10/21 12:36:50;;;;;;;5.28;1.45;;;10.80;71.20;;;;;;4935765;28;20071;-59
2021/10/21 12:39:30;;;;;;;5.20;1.00;;;10.80;73.90;;;;;;4942622;29;20403;-59
2021/10/21 12:41:58;;;;;;;3.72;1.15;;;10.90;73.30;;;;;;4935831;28;20519;-60
2021/10/21 12:44:29;;;;;;;6.45;1.30;;;10.90;75.20;;;;;;4933530;29;20052;-61
2021/10/21 12:50:01;;;;;;;5.40;1.20;;;11.00;71.00;;;;;;4924596;29;20110;-61
2021/10/21 12:52:30;;;;;;;11.40;3.05;;;11.00;70.30;;;;;;4934251;29;20094;-60
2021/10/21 12:55:18;;;;;;;2.88;1.02;;;11.10;74.30;;;;;;4939803;29;20075;-59
2021/10/21 12:58:02;;;;;;;2.90;0.88;;;11.10;67.60;;;;;;4944148;29;20047;-60
2021/10/21 13:00:37;;;;;;;4.35;1.80;;;11.10;70.70;;;;;;4932276;29;20086;-59
2021/10/21 13:03:05;;;;;;;9.43;1.48;;;11.10;71.40;;;;;;4937691;29;20138;-59
2021/10/21 13:05:32;;;;;;;5.40;1.13;;;11.20;73.70;;;;;;4940544;29;20075;-59
2021/10/21 13:07:59;;;;;;;6.53;1.33;;;11.40;69.40;;;;;;4935214;29;20051;-59